Sunflower Tokyo — JH3422 — position and weather

sailwx.info

Track history (hours):
 
Tides and Currents Weather Stations Pressure Air Temp Water Temp Dewpoint Dewpoint Depression Visibility Wind Speed Wind Dir Waves Ship Positions

Sunflower Tokyo

Last reported at 2017-Nov-17 14:28 UTC. Time now 2017-Nov-22 11:02 UTC.
Position N 34°54' E 139°26'.

Length 167 m; draft 6.5 m.

Type: Cargo ship. MMSI: 431200647.

Date/timePositionNaut miles runAvg speedWind from/ knotsBaromVisibWave heightAir tempDewpointWater temp
2017-Nov-17 14:28N 34°54' E 139°26'1020.7
2017-Nov-17 14:00N 35°00' E 139°34'1121.6
2017-Nov-17 13:30N 35°08' E 139°44'815.8
2017-Nov-17 13:00N 35°15' E 139°46'612.1
2017-Nov-17 12:30N 35°20' E 139°42'1019.2
2017-Nov-17 12:01N 35°28' E 139°49'714.2
2017-Nov-17 11:30N 35°35' E 139°47'2 3.4
2017-Nov-17 10:58N 35°37' E 139°48'0 0.0
2017-Nov-16 22:24N 35°37' E 139°48'0 0.0
2017-Nov-16 22:00N 35°37' E 139°48'0 0.0
2017-Nov-16 20:32N 35°37' E 139°48'0 0.5
2017-Nov-16 20:25N 35°37' E 139°47'2 4.7
2017-Nov-16 20:00N 35°35' E 139°48'714.3
2017-Nov-16 19:30N 35°28' E 139°51'815.3
2017-Nov-16 19:00N 35°22' E 139°45'611.6
2017-Nov-16 18:31N 35°16' E 139°46'612.3
2017-Nov-16 18:00N 35°10' E 139°47'611.4
2017-Nov-16 17:30N 35°05' E 139°44'611.1
2017-Nov-16 17:00N 35°01' E 139°40'1019.2
2017-Nov-16 16:29N 34°55' E 139°30'23118.9
2017-Nov-16 04:17N 33°54' E 134°59'623.2
2017-Nov-16 04:00N 34°00' E 134°59'1223.2
2017-Nov-16 03:30N 34°12' E 134°58'1223.6
2017-Nov-16 03:01N 34°23' E 134°60'1223.0
2017-Nov-16 02:30N 34°35' E 135°03'  
2017-Nov-12 03:19N 35°37' E 139°47'1 4.4
2017-Nov-12 03:01N 35°36' E 139°47'612.6
2017-Nov-12 02:30N 35°31' E 139°52'917.3
2017-Nov-12 02:00N 35°24' E 139°46'611.8
2017-Nov-12 01:30N 35°18' E 139°45'612.8
2017-Nov-12 01:00N 35°12' E 139°46'1020.0
2017-Nov-12 00:30N 35°03' E 139°40'1020.4
2017-Nov-12 00:00N 34°56' E 139°30'23218.7
2017-Nov-11 11:37N 33°54' E 134°60'323.6
2017-Nov-11 11:31N 33°57' E 134°60'1223.2
2017-Nov-11 11:00N 34°08' E 134°59'1223.3
2017-Nov-11 10:30N 34°20' E 134°59'1122.6
2017-Nov-11 10:00N 34°31' E 135°02'713.9
2017-Nov-11 09:30N 34°36' E 134°56'  
2017-Nov-08 14:16N 35°04' E 139°39'519.8
2017-Nov-08 14:00N 35°07' E 139°44'815.6
2017-Nov-08 13:30N 35°15' E 139°46'713.0
2017-Nov-08 13:00N 35°21' E 139°43'1019.6
2017-Nov-08 12:31N 35°29' E 139°49'814.5
2017-Nov-08 11:58N 35°36' E 139°48'1 0.1
2017-Nov-08 02:20N 35°37' E 139°48'0 0.0
2017-Nov-08 01:59N 35°37' E 139°48'0 0.0
2017-Nov-08 01:25N 35°37' E 139°48'0 0.0
2017-Nov-08 00:31N 35°37' E 139°48'0 0.0
2017-Nov-08 00:16N 35°37' E 139°48'0 0.1
2017-Nov-07 20:39N 35°37' E 139°48'1 8.3
2017-Nov-07 20:29N 35°35' E 139°48'715.3
2017-Nov-07 20:00N 35°28' E 139°51'816.7
2017-Nov-07 19:31N 35°22' E 139°45'612.1
2017-Nov-07 19:00N 35°16' E 139°47'816.7
2017-Nov-07 18:30N 35°08' E 139°43'  
Track history (hours):
 
Tides and Currents Weather Stations Pressure Air Temp Water Temp Dewpoint Dewpoint Depression Visibility Wind Speed Wind Dir Waves Ship Positions

Sunflower Tokyo

Last reported at 2017-Nov-17 14:28 UTC. Time now 2017-Nov-22 11:02 UTC.
Position N 34°54' E 139°26'.

Length 167 m; draft 6.5 m.

Type: Cargo ship. MMSI: 431200647.

Date/timePositionNaut miles runAvg speedWind from/ knotsBaromVisibWave heightAir tempDewpointWater temp
2017-Nov-17 14:28N 34°54' E 139°26'1020.7
2017-Nov-17 14:00N 35°00' E 139°34'1121.6
2017-Nov-17 13:30N 35°08' E 139°44'815.8
2017-Nov-17 13:00N 35°15' E 139°46'612.1
2017-Nov-17 12:30N 35°20' E 139°42'1019.2
2017-Nov-17 12:01N 35°28' E 139°49'714.2
2017-Nov-17 11:30N 35°35' E 139°47'2 3.4
2017-Nov-17 10:58N 35°37' E 139°48'0 0.0
2017-Nov-16 22:24N 35°37' E 139°48'0 0.0
2017-Nov-16 22:00N 35°37' E 139°48'0 0.0
2017-Nov-16 20:32N 35°37' E 139°48'0 0.5
2017-Nov-16 20:25N 35°37' E 139°47'2 4.7
2017-Nov-16 20:00N 35°35' E 139°48'714.3
2017-Nov-16 19:30N 35°28' E 139°51'815.3
2017-Nov-16 19:00N 35°22' E 139°45'611.6
2017-Nov-16 18:31N 35°16' E 139°46'612.3
2017-Nov-16 18:00N 35°10' E 139°47'611.4
2017-Nov-16 17:30N 35°05' E 139°44'611.1
2017-Nov-16 17:00N 35°01' E 139°40'1019.2
2017-Nov-16 16:29N 34°55' E 139°30'23118.9
2017-Nov-16 04:17N 33°54' E 134°59'623.2
2017-Nov-16 04:00N 34°00' E 134°59'1223.2
2017-Nov-16 03:30N 34°12' E 134°58'1223.6
2017-Nov-16 03:01N 34°23' E 134°60'1223.0
2017-Nov-16 02:30N 34°35' E 135°03'  
2017-Nov-12 03:19N 35°37' E 139°47'1 4.4
2017-Nov-12 03:01N 35°36' E 139°47'612.6
2017-Nov-12 02:30N 35°31' E 139°52'917.3
2017-Nov-12 02:00N 35°24' E 139°46'611.8
2017-Nov-12 01:30N 35°18' E 139°45'612.8
2017-Nov-12 01:00N 35°12' E 139°46'1020.0
2017-Nov-12 00:30N 35°03' E 139°40'1020.4
2017-Nov-12 00:00N 34°56' E 139°30'23218.7
2017-Nov-11 11:37N 33°54' E 134°60'323.6
2017-Nov-11 11:31N 33°57' E 134°60'1223.2
2017-Nov-11 11:00N 34°08' E 134°59'1223.3
2017-Nov-11 10:30N 34°20' E 134°59'1122.6
2017-Nov-11 10:00N 34°31' E 135°02'713.9
2017-Nov-11 09:30N 34°36' E 134°56'  
2017-Nov-08 14:16N 35°04' E 139°39'519.8
2017-Nov-08 14:00N 35°07' E 139°44'815.6
2017-Nov-08 13:30N 35°15' E 139°46'713.0
2017-Nov-08 13:00N 35°21' E 139°43'1019.6
2017-Nov-08 12:31N 35°29' E 139°49'814.5
2017-Nov-08 11:58N 35°36' E 139°48'1 0.1
2017-Nov-08 02:20N 35°37' E 139°48'0 0.0
2017-Nov-08 01:59N 35°37' E 139°48'0 0.0
2017-Nov-08 01:25N 35°37' E 139°48'0 0.0
2017-Nov-08 00:31N 35°37' E 139°48'0 0.0
2017-Nov-08 00:16N 35°37' E 139°48'0 0.1
2017-Nov-07 20:39N 35°37' E 139°48'1 8.3
2017-Nov-07 20:29N 35°35' E 139°48'715.3
2017-Nov-07 20:00N 35°28' E 139°51'816.7
2017-Nov-07 19:31N 35°22' E 139°45'612.1
2017-Nov-07 19:00N 35°16' E 139°47'816.7
2017-Nov-07 18:30N 35°08' E 139°43'  

Dump ship's entire track history